createdAt,value
2018-08-23T00:01:38.358Z,20.20
2018-08-23T00:03:42.401Z,20.50
2018-08-23T00:05:53.623Z,21.30
2018-08-23T00:08:08.436Z,22.20
2018-08-23T00:10:12.666Z,22.70
2018-08-23T00:12:16.838Z,22.50
2018-08-23T00:14:20.644Z,22.20
2018-08-23T00:16:41.902Z,21.70
2018-08-23T00:18:46.174Z,21.40
2018-08-23T00:20:50.132Z,21.00
2018-08-23T00:22:53.972Z,20.80
2018-08-23T00:24:57.993Z,20.50
2018-08-23T00:27:02.059Z,20.40
2018-08-23T00:29:38.791Z,20.20
2018-08-23T00:31:42.756Z,20.00
2018-08-23T00:33:47.139Z,19.80
2018-08-23T00:35:51.381Z,19.70
2018-08-23T00:37:55.431Z,20.00
2018-08-23T00:40:03.473Z,20.90
2018-08-23T00:42:09.732Z,21.70
2018-08-23T00:44:13.768Z,22.20
2018-08-23T00:46:18.085Z,22.00
2018-08-23T00:48:22.132Z,21.60
2018-08-23T00:51:00.214Z,21.20
2018-08-23T00:53:04.209Z,20.80
2018-08-23T00:55:19.573Z,20.40
2018-08-23T00:57:23.742Z,20.20
2018-08-23T00:59:27.665Z,19.90
2018-08-23T01:01:32.419Z,19.70
2018-08-23T01:03:36.485Z,19.50
2018-08-23T01:05:40.803Z,19.30
2018-08-23T01:07:44.785Z,19.20
2018-08-23T01:09:48.753Z,19.10
2018-08-23T01:11:53.010Z,19.20
2018-08-23T01:13:56.898Z,19.90
2018-08-23T01:16:01.070Z,20.80
2018-08-23T01:18:17.139Z,21.50
2018-08-23T01:20:21.131Z,21.60
2018-08-23T01:22:25.323Z,21.20
2018-08-23T01:24:31.000Z,20.80
2018-08-23T01:26:36.154Z,20.40
2018-08-23T01:28:40.459Z,20.10
2018-08-23T01:30:45.284Z,19.70
2018-08-23T01:32:49.479Z,19.50
2018-08-23T01:34:53.783Z,19.20
2018-08-23T01:36:57.987Z,19.00
2018-08-23T01:39:06.455Z,18.90
2018-08-23T01:41:13.932Z,18.70
2018-08-23T01:43:18.010Z,18.60
2018-08-23T01:45:22.232Z,18.40
2018-08-23T01:47:26.217Z,18.50
2018-08-23T01:49:30.334Z,19.20
2018-08-23T01:51:34.883Z,20.10
2018-08-23T01:53:39.352Z,20.90
2018-08-23T01:55:43.466Z,21.10
2018-08-23T01:57:47.629Z,20.70
2018-08-23T01:59:51.691Z,20.30
2018-08-23T02:01:55.890Z,19.90
2018-08-23T02:03:59.909Z,19.60
2018-08-23T02:06:04.037Z,19.30
2018-08-23T02:08:08.094Z,19.00
2018-08-23T02:10:12.312Z,18.80
2018-08-23T02:12:16.240Z,18.60
2018-08-23T02:14:20.397Z,18.40
2018-08-23T02:16:24.426Z,18.30
2018-08-23T02:18:28.411Z,18.10
2018-08-23T02:20:32.424Z,18.10
2018-08-23T02:22:36.489Z,18.00
2018-08-23T02:24:40.626Z,18.10
2018-08-23T02:26:44.750Z,18.90
2018-08-23T02:28:49.808Z,19.90
2018-08-23T02:30:55.884Z,20.60
2018-08-23T02:32:59.944Z,20.70
2018-08-23T02:35:05.514Z,20.40
2018-08-23T02:37:11.072Z,20.00
2018-08-23T02:39:15.131Z,19.50
2018-08-23T02:41:19.077Z,19.20
2018-08-23T02:43:23.070Z,19.00
2018-08-23T02:45:36.404Z,18.70
2018-08-23T02:47:40.439Z,18.50
2018-08-23T02:49:44.579Z,18.30
2018-08-23T02:51:52.003Z,18.10
2018-08-23T02:53:56.123Z,18.00
2018-08-23T02:56:06.225Z,17.90
2018-08-23T02:58:10.403Z,17.80
2018-08-23T03:00:14.346Z,17.70
2018-08-23T03:02:18.371Z,17.80
2018-08-23T03:04:24.388Z,18.50
2018-08-23T03:06:34.351Z,19.40
2018-08-23T03:08:44.380Z,20.30
2018-08-23T03:10:48.316Z,20.40
2018-08-23T03:12:52.337Z,20.00
2018-08-23T03:14:56.376Z,19.60
2018-08-23T03:17:19.060Z,19.20
2018-08-23T03:19:23.029Z,18.90
2018-08-23T03:21:26.962Z,18.50
2018-08-23T03:23:31.056Z,18.20
2018-08-23T03:25:34.984Z,18.00
2018-08-23T03:27:39.176Z,17.80
2018-08-23T03:29:43.203Z,17.70
2018-08-23T03:31:47.202Z,17.60
2018-08-23T03:33:51.409Z,17.50
2018-08-23T03:35:55.470Z,17.40
2018-08-23T03:37:59.627Z,17.30
2018-08-23T03:40:03.858Z,17.20
2018-08-23T03:42:07.774Z,17.70
2018-08-23T03:44:22.137Z,18.60
2018-08-23T03:46:26.043Z,19.50
2018-08-23T03:48:30.135Z,20.10
2018-08-23T03:50:38.186Z,19.90
2018-08-23T03:52:46.567Z,19.60
2018-08-23T03:54:59.247Z,19.20
2018-08-23T03:57:19.129Z,18.80
2018-08-23T03:59:22.899Z,18.50
2018-08-23T04:01:26.840Z,18.20
2018-08-23T04:03:31.115Z,18.00
2018-08-23T04:05:35.149Z,17.80
2018-08-23T04:07:40.127Z,17.60
2018-08-23T04:09:44.859Z,17.50
2018-08-23T04:11:48.907Z,17.40
2018-08-23T04:13:52.900Z,17.30
2018-08-23T04:15:56.881Z,17.20
2018-08-23T04:18:07.313Z,17.10
2018-08-23T04:20:11.421Z,17.20
2018-08-23T04:22:15.318Z,17.90
2018-08-23T04:24:19.283Z,18.80
2018-08-23T04:26:23.985Z,19.70
2018-08-23T04:28:28.196Z,20.10
2018-08-23T04:30:32.724Z,19.80
2018-08-23T04:32:42.972Z,19.40
2018-08-23T04:34:46.748Z,19.10
2018-08-23T04:36:50.615Z,18.70
2018-08-23T04:38:59.931Z,18.40
2018-08-23T04:41:05.915Z,18.10
2018-08-23T04:43:09.938Z,17.90
2018-08-23T04:45:19.341Z,17.60
2018-08-23T04:47:23.889Z,17.50
2018-08-23T04:49:28.103Z,17.30
2018-08-23T04:51:32.176Z,17.20
2018-08-23T04:53:36.270Z,17.10
2018-08-23T04:55:40.218Z,17.00
2018-08-23T04:57:44.508Z,17.00
2018-08-23T04:59:48.486Z,17.00
2018-08-23T05:01:52.531Z,17.50
2018-08-23T05:03:56.603Z,18.50
2018-08-23T05:06:00.620Z,19.40
2018-08-23T05:08:04.567Z,19.90
2018-08-23T05:10:08.552Z,19.80
2018-08-23T05:12:12.559Z,19.40
2018-08-23T05:14:16.539Z,19.10
2018-08-23T05:16:20.552Z,18.70
2018-08-23T05:18:24.536Z,18.50
2018-08-23T05:20:28.738Z,18.20
2018-08-23T05:22:32.896Z,18.00
2018-08-23T05:24:36.917Z,17.90
2018-08-23T05:26:41.124Z,17.80
2018-08-23T05:29:16.024Z,17.70
2018-08-23T05:31:20.006Z,17.70
2018-08-23T05:33:24.423Z,17.60
2018-08-23T05:35:29.415Z,17.60
2018-08-23T05:37:33.380Z,17.50
2018-08-23T05:39:48.921Z,17.50
2018-08-23T05:41:53.003Z,18.10
2018-08-23T05:44:15.998Z,19.10
2018-08-23T05:46:20.213Z,20.00
2018-08-23T05:48:32.471Z,20.60
2018-08-23T05:50:36.440Z,20.50
2018-08-23T05:52:40.652Z,20.30
2018-08-23T05:54:44.676Z,20.20
2018-08-23T05:56:48.604Z,20.00
2018-08-23T05:58:54.366Z,20.00
2018-08-23T06:00:58.179Z,20.00
2018-08-23T06:03:02.208Z,20.00
2018-08-23T06:05:06.218Z,20.10
2018-08-23T06:07:10.280Z,20.10
2018-08-23T06:09:16.162Z,20.10
2018-08-23T06:11:20.222Z,20.20
2018-08-23T06:13:24.192Z,20.30
2018-08-23T06:15:28.319Z,20.40
2018-08-23T06:17:32.622Z,20.50
2018-08-23T06:19:36.723Z,20.90
2018-08-23T06:21:40.988Z,21.80
2018-08-23T06:24:03.942Z,23.00
2018-08-23T06:26:07.924Z,23.90
2018-08-23T06:28:20.012Z,24.60
2018-08-23T06:30:23.968Z,24.50
2018-08-23T06:32:28.057Z,24.40
2018-08-23T06:34:33.944Z,23.90
2018-08-23T06:36:42.409Z,23.60
2018-08-23T06:38:53.552Z,23.50
2018-08-23T06:40:58.531Z,23.60
2018-08-23T06:43:04.427Z,23.60
2018-08-23T06:45:08.598Z,23.60
2018-08-23T06:47:15.189Z,23.70
2018-08-23T06:49:19.225Z,23.80
2018-08-23T06:51:23.255Z,23.70
2018-08-23T06:53:33.127Z,23.80
2018-08-23T06:55:37.106Z,24.20
2018-08-23T06:57:44.462Z,25.20
2018-08-23T06:59:48.488Z,26.10
2018-08-23T07:01:52.525Z,27.00
2018-08-23T07:04:01.715Z,27.40
2018-08-23T07:06:05.965Z,27.10
2018-08-23T07:08:10.299Z,27.10
2018-08-23T07:10:14.935Z,26.90
2018-08-23T07:12:20.135Z,26.70
2018-08-23T07:14:24.168Z,26.60
2018-08-23T07:16:28.219Z,26.40
2018-08-23T07:18:32.349Z,26.20
2018-08-23T07:20:36.395Z,26.30
2018-08-23T07:22:40.659Z,26.30
2018-08-23T07:24:46.675Z,26.20
2018-08-23T07:26:50.757Z,26.20
2018-08-23T07:28:54.763Z,26.60
2018-08-23T07:30:58.785Z,27.40
2018-08-23T07:33:02.774Z,28.20
2018-08-23T07:35:12.933Z,28.90
2018-08-23T07:37:18.415Z,28.70
2018-08-23T07:39:22.506Z,28.60
2018-08-23T07:41:26.717Z,28.30
2018-08-23T07:43:30.888Z,28.00
2018-08-23T07:45:35.073Z,27.80
2018-08-23T07:47:40.787Z,27.60
2018-08-23T07:49:44.873Z,27.30
2018-08-23T07:51:48.956Z,27.00
2018-08-23T07:53:53.032Z,26.60
2018-08-23T07:55:57.954Z,26.10
2018-08-23T07:58:02.243Z,26.00
2018-08-23T08:00:39.933Z,26.60
2018-08-23T08:02:43.967Z,27.40
2018-08-23T08:04:47.963Z,28.10
2018-08-23T08:06:51.959Z,28.70
2018-08-23T08:08:57.327Z,28.40
2018-08-23T08:11:02.376Z,28.00
2018-08-23T08:13:06.411Z,27.40
2018-08-23T08:15:11.984Z,27.10
2018-08-23T08:17:20.873Z,26.90
2018-08-23T08:19:24.959Z,26.80
2018-08-23T08:21:29.229Z,26.60
2018-08-23T08:23:33.800Z,26.30
2018-08-23T08:25:38.156Z,26.00
2018-08-23T08:27:42.128Z,25.80
2018-08-23T08:29:46.350Z,26.40
2018-08-23T08:31:50.328Z,27.20
2018-08-23T08:33:58.830Z,28.20
2018-08-23T08:36:03.870Z,28.70
2018-08-23T08:38:08.135Z,28.50
2018-08-23T08:40:15.082Z,28.00
2018-08-23T08:42:23.805Z,27.60
2018-08-23T08:44:27.808Z,27.10
2018-08-23T08:46:31.773Z,26.70
2018-08-23T08:48:36.173Z,26.50
2018-08-23T08:50:45.441Z,26.40
2018-08-23T08:52:49.541Z,26.20
2018-08-23T08:54:53.433Z,26.20
2018-08-23T08:56:57.708Z,26.20
2018-08-23T08:59:01.795Z,26.90
2018-08-23T09:01:06.074Z,27.70
2018-08-23T09:03:10.255Z,28.60
2018-08-23T09:05:14.378Z,28.80
2018-08-23T09:07:18.736Z,28.70
2018-08-23T09:09:39.775Z,28.30
2018-08-23T09:11:43.644Z,28.00
2018-08-23T09:13:48.027Z,27.60
2018-08-23T09:15:51.937Z,27.50
2018-08-23T09:17:56.291Z,27.40
2018-08-23T09:20:04.259Z,27.10
2018-08-23T09:22:13.613Z,27.00
2018-08-23T09:24:26.828Z,26.80
2018-08-23T09:26:36.087Z,27.10
2018-08-23T09:28:40.098Z,28.00
2018-08-23T09:30:44.714Z,28.80
2018-08-23T09:32:48.692Z,29.50
2018-08-23T09:34:57.948Z,29.50
2018-08-23T09:37:01.902Z,29.30
2018-08-23T09:39:09.457Z,29.00
2018-08-23T09:41:13.654Z,28.70
2018-08-23T09:43:17.707Z,28.30
2018-08-23T09:45:22.004Z,27.90
2018-08-23T09:47:26.021Z,27.70
2018-08-23T09:49:29.900Z,27.50
2018-08-23T09:51:34.120Z,27.30
2018-08-23T09:53:38.097Z,27.20
2018-08-23T09:55:42.466Z,27.90
2018-08-23T09:57:47.161Z,28.50
2018-08-23T09:59:56.360Z,29.30
2018-08-23T10:02:05.477Z,29.60
2018-08-23T10:04:14.578Z,29.20
2018-08-23T10:06:23.928Z,28.80
2018-08-23T10:08:32.887Z,28.30
2018-08-23T10:10:42.211Z,28.00
2018-08-23T10:12:51.524Z,27.70
2018-08-23T10:15:00.720Z,27.50
2018-08-23T10:17:09.954Z,27.30
2018-08-23T10:19:19.043Z,27.10
2018-08-23T10:21:28.380Z,27.10
2018-08-23T10:23:32.498Z,28.00
2018-08-23T10:25:44.036Z,28.80
2018-08-23T10:27:47.972Z,29.50
2018-08-23T10:29:52.322Z,29.80
2018-08-23T10:31:56.364Z,29.50
2018-08-23T10:34:00.376Z,29.00
2018-08-23T10:36:04.624Z,28.60
2018-08-23T10:38:08.786Z,28.30
2018-08-23T10:40:12.758Z,28.00
2018-08-23T10:42:17.454Z,27.90
2018-08-23T10:44:21.546Z,27.70
2018-08-23T10:46:25.536Z,27.40
2018-08-23T10:48:29.396Z,27.20
2018-08-23T10:50:33.462Z,27.70
2018-08-23T10:52:37.552Z,28.40
2018-08-23T10:54:41.541Z,29.00
2018-08-23T10:56:45.701Z,29.30
2018-08-23T10:58:49.871Z,29.20
2018-08-23T11:00:54.155Z,28.90
2018-08-23T11:02:58.157Z,28.60
2018-08-23T11:05:02.219Z,28.20
2018-08-23T11:07:06.184Z,27.80
2018-08-23T11:09:15.437Z,27.60
2018-08-23T11:11:24.649Z,27.50
2018-08-23T11:13:33.861Z,27.20
2018-08-23T11:15:37.860Z,27.10
2018-08-23T11:17:47.160Z,27.40
2018-08-23T11:19:56.368Z,28.20
2018-08-23T11:22:00.589Z,28.80
2018-08-23T11:24:04.523Z,29.10
2018-08-23T11:26:08.532Z,29.20
2018-08-23T11:28:18.083Z,29.10
2018-08-23T11:30:22.294Z,28.70
2018-08-23T11:32:26.325Z,28.40
2018-08-23T11:34:30.398Z,28.00
2018-08-23T11:36:34.565Z,27.90
2018-08-23T11:38:38.725Z,27.50
2018-08-23T11:40:42.783Z,27.30
2018-08-23T11:42:46.814Z,27.00
2018-08-23T11:44:50.767Z,27.00
2018-08-23T11:46:55.109Z,27.80
2018-08-23T11:48:59.219Z,28.80
2018-08-23T11:51:03.305Z,29.40
2018-08-23T11:53:07.431Z,29.30
2018-08-23T11:55:11.284Z,29.10
2018-08-23T11:57:15.299Z,28.70
2018-08-23T11:59:19.471Z,28.50
2018-08-23T12:01:23.554Z,28.10
2018-08-23T12:03:27.575Z,27.80
2018-08-23T12:05:31.621Z,27.50
2018-08-23T12:07:35.861Z,27.00
2018-08-23T12:09:39.908Z,26.70
2018-08-23T12:11:44.113Z,26.50
2018-08-23T12:13:49.902Z,27.20
2018-08-23T12:15:54.128Z,28.10
2018-08-23T12:17:58.773Z,28.90
2018-08-23T12:20:02.815Z,29.20
2018-08-23T12:22:06.895Z,28.70
2018-08-23T12:24:10.952Z,28.30
2018-08-23T12:26:15.136Z,28.00
2018-08-23T12:28:24.403Z,27.70
2018-08-23T12:30:28.397Z,27.30
2018-08-23T12:32:32.413Z,27.00
2018-08-23T12:34:37.275Z,26.90
2018-08-23T12:36:46.549Z,26.70
2018-08-23T12:38:55.899Z,26.50
2018-08-23T12:41:05.403Z,26.90
2018-08-23T12:43:12.636Z,27.90
2018-08-23T12:45:16.915Z,28.50
2018-08-23T12:47:20.892Z,29.10
2018-08-23T12:49:24.896Z,29.00
2018-08-23T12:51:28.941Z,28.30
2018-08-23T12:53:32.748Z,27.90
2018-08-23T12:55:36.833Z,27.40
2018-08-23T12:57:40.873Z,27.00
2018-08-23T12:59:44.813Z,26.80
2018-08-23T13:01:48.921Z,26.80
2018-08-23T13:03:53.038Z,26.60
2018-08-23T13:05:57.068Z,26.60
2018-08-23T13:08:01.222Z,26.60
2018-08-23T13:10:05.623Z,27.40
2018-08-23T13:12:09.567Z,28.30
2018-08-23T13:14:13.567Z,28.80
2018-08-23T13:16:17.721Z,29.10
2018-08-23T13:18:21.723Z,28.70
2018-08-23T13:20:26.106Z,28.20
2018-08-23T13:22:35.302Z,27.90
2018-08-23T13:24:44.454Z,27.60
2018-08-23T13:26:48.545Z,27.30
2018-08-23T13:28:52.509Z,27.00
2018-08-23T13:30:56.588Z,26.80
2018-08-23T13:33:00.901Z,26.70
2018-08-23T13:35:05.178Z,26.70
2018-08-23T13:37:09.217Z,27.10
2018-08-23T13:39:13.922Z,28.00
2018-08-23T13:41:18.175Z,28.80
2018-08-23T13:43:22.115Z,29.20
2018-08-23T13:45:26.122Z,28.90
2018-08-23T13:47:30.067Z,28.40
2018-08-23T13:49:34.096Z,28.00
2018-08-23T13:51:38.273Z,27.60
2018-08-23T13:53:42.476Z,27.10
2018-08-23T13:55:46.655Z,26.80
2018-08-23T13:57:50.746Z,26.70
2018-08-23T13:59:54.779Z,26.50
2018-08-23T14:01:58.713Z,26.40
2018-08-23T14:04:02.898Z,26.40
2018-08-23T14:06:07.295Z,27.20
2018-08-23T14:08:11.266Z,28.10
2018-08-23T14:10:15.244Z,28.40
2018-08-23T14:12:19.431Z,28.20
2018-08-23T14:14:23.441Z,27.90
2018-08-23T14:16:27.437Z,27.50
2018-08-23T14:18:32.040Z,27.10
2018-08-23T14:20:36.057Z,26.80
2018-08-23T14:22:40.092Z,26.50
2018-08-23T14:24:44.121Z,26.20
2018-08-23T14:26:48.079Z,26.10
2018-08-23T14:28:52.747Z,25.90
2018-08-23T14:30:56.725Z,25.80
2018-08-23T14:33:00.900Z,26.30
2018-08-23T14:35:05.042Z,26.90
2018-08-23T14:37:09.281Z,27.60
2018-08-23T14:39:13.287Z,28.20
2018-08-23T14:41:17.188Z,28.00
2018-08-23T14:43:21.177Z,27.50
2018-08-23T14:45:30.566Z,27.10
2018-08-23T14:48:41.775Z,26.70
2018-08-23T14:50:49.835Z,26.40
2018-08-23T14:52:53.743Z,26.00
2018-08-23T14:54:57.733Z,25.70
2018-08-23T14:57:06.815Z,25.50
2018-08-23T14:59:10.992Z,25.20
2018-08-23T15:01:14.972Z,25.80
2018-08-23T15:03:19.382Z,26.70
2018-08-23T15:05:23.396Z,27.30
2018-08-23T15:07:27.464Z,27.50
2018-08-23T15:09:31.631Z,27.40
2018-08-23T15:11:35.855Z,27.00
2018-08-23T15:13:39.950Z,26.70
2018-08-23T15:15:47.788Z,26.40
2018-08-23T15:17:52.095Z,26.10
2018-08-23T15:19:56.132Z,25.90
2018-08-23T15:22:00.211Z,25.70
2018-08-23T15:24:04.297Z,25.50
2018-08-23T15:26:08.589Z,25.40
2018-08-23T15:28:12.596Z,25.50
2018-08-23T15:30:16.604Z,26.20
2018-08-23T15:32:20.656Z,27.00
2018-08-23T15:34:24.640Z,27.70
2018-08-23T15:36:28.572Z,27.90
2018-08-23T15:38:32.936Z,27.50
2018-08-23T15:40:36.972Z,27.00
2018-08-23T15:42:40.950Z,26.70
2018-08-23T15:44:44.930Z,26.40
2018-08-23T15:46:49.516Z,26.10
2018-08-23T15:48:53.700Z,25.90
2018-08-23T15:50:57.707Z,25.70
2018-08-23T15:53:01.592Z,25.40
2018-08-23T15:55:05.912Z,25.20
2018-08-23T15:57:10.054Z,25.40
2018-08-23T15:59:14.075Z,26.30
2018-08-23T16:01:18.246Z,27.00
2018-08-23T16:03:22.424Z,27.60
2018-08-23T16:05:26.677Z,27.50
2018-08-23T16:07:30.795Z,27.10
2018-08-23T16:09:34.900Z,26.70
2018-08-23T16:11:39.096Z,26.40
2018-08-23T16:13:43.187Z,26.00
2018-08-23T16:15:47.724Z,25.80
2018-08-23T16:17:57.030Z,25.50
2018-08-23T16:20:06.362Z,25.20
2018-08-23T16:22:19.129Z,24.90
2018-08-23T16:24:23.180Z,24.70
2018-08-23T16:26:32.239Z,25.30
2018-08-23T16:28:36.458Z,26.20
2018-08-23T16:30:41.650Z,27.10
2018-08-23T16:32:46.002Z,27.40
2018-08-23T16:34:50.007Z,27.20
2018-08-23T16:36:54.382Z,26.80
2018-08-23T16:39:06.083Z,26.30
2018-08-23T16:41:10.063Z,26.10
2018-08-23T16:43:14.036Z,25.70
2018-08-23T16:45:18.052Z,25.40
2018-08-23T16:47:21.924Z,25.10
2018-08-23T16:49:26.467Z,25.00
2018-08-23T16:51:30.584Z,24.80
2018-08-23T16:53:34.645Z,24.70
2018-08-23T16:55:38.713Z,25.30
2018-08-23T16:57:42.714Z,26.10
2018-08-23T16:59:46.924Z,26.70
2018-08-23T17:01:50.947Z,27.20
2018-08-23T17:03:56.200Z,26.80
2018-08-23T17:06:00.491Z,26.50
2018-08-23T17:08:04.594Z,26.10
2018-08-23T17:10:08.856Z,25.70
2018-08-23T17:12:12.920Z,25.40
2018-08-23T17:14:17.238Z,25.20
2018-08-23T17:16:26.606Z,24.90
2018-08-23T17:18:30.704Z,24.70
2018-08-23T17:20:34.668Z,24.50
2018-08-23T17:22:38.796Z,24.30
2018-08-23T17:24:42.901Z,24.90
2018-08-23T17:26:46.795Z,25.70
2018-08-23T17:28:50.827Z,26.60
2018-08-23T17:30:54.725Z,26.70
2018-08-23T17:32:58.903Z,26.50
2018-08-23T17:35:02.935Z,26.20
2018-08-23T17:37:07.017Z,25.90
2018-08-23T17:39:11.154Z,25.40
2018-08-23T17:41:15.165Z,25.10
2018-08-23T17:43:19.375Z,24.80
2018-08-23T17:45:23.310Z,24.60
2018-08-23T17:47:27.273Z,24.40
2018-08-23T17:49:31.457Z,24.10
2018-08-23T17:51:35.476Z,23.90
2018-08-23T17:53:39.429Z,24.30
2018-08-23T17:55:43.760Z,25.10
2018-08-23T17:57:47.760Z,26.00
2018-08-23T17:59:51.751Z,26.50
2018-08-23T18:01:55.811Z,26.30
2018-08-23T18:04:00.126Z,25.90
2018-08-23T18:06:04.160Z,25.60
2018-08-23T18:08:08.324Z,25.20
2018-08-23T18:10:12.170Z,24.80
2018-08-23T18:12:16.287Z,24.50
2018-08-23T18:14:20.324Z,24.30
2018-08-23T18:16:29.534Z,24.00
2018-08-23T18:18:33.484Z,23.80
2018-08-23T18:20:37.429Z,23.60
2018-08-23T18:22:41.518Z,23.60
2018-08-23T18:24:45.646Z,24.40
2018-08-23T18:26:49.657Z,25.20
2018-08-23T18:28:53.842Z,26.00
2018-08-23T18:30:57.910Z,26.00
2018-08-23T18:33:02.067Z,25.70
2018-08-23T18:35:06.012Z,25.30
2018-08-23T18:37:10.182Z,24.90
2018-08-23T18:39:14.200Z,24.50
2018-08-23T18:41:18.058Z,24.10
2018-08-23T18:43:22.098Z,23.80
2018-08-23T18:45:26.221Z,23.50
2018-08-23T18:47:30.203Z,23.30
2018-08-23T18:49:34.266Z,23.10
2018-08-23T18:51:38.437Z,22.90
2018-08-23T18:53:42.512Z,23.10
2018-08-23T18:55:46.491Z,23.80
2018-08-23T18:57:50.374Z,24.70
2018-08-23T18:59:54.479Z,25.30
2018-08-23T19:01:58.616Z,25.30
2018-08-23T19:04:03.249Z,24.90
2018-08-23T19:06:07.388Z,24.50
2018-08-23T19:08:11.336Z,24.10
2018-08-23T19:10:15.293Z,23.70
2018-08-23T19:12:19.211Z,23.40
2018-08-23T19:14:23.259Z,23.10
2018-08-23T19:16:32.473Z,22.90
2018-08-23T19:18:36.565Z,22.60
2018-08-23T19:20:40.467Z,22.40
2018-08-23T19:22:44.500Z,22.20
2018-08-23T19:24:48.532Z,22.40
2018-08-23T19:26:52.752Z,23.20
2018-08-23T19:28:56.718Z,24.10
2018-08-23T19:31:00.895Z,24.70
2018-08-23T19:33:04.862Z,24.60
2018-08-23T19:35:08.814Z,24.30
2018-08-23T19:37:13.047Z,23.90
2018-08-23T19:39:17.506Z,23.50
2018-08-23T19:41:21.521Z,23.10
2018-08-23T19:43:25.704Z,22.80
2018-08-23T19:45:33.848Z,22.50
2018-08-23T19:47:43.044Z,22.20
2018-08-23T19:49:54.160Z,22.00
2018-08-23T19:51:58.559Z,21.80
2018-08-23T19:58:09.903Z,22.50
2018-08-23T20:00:14.024Z,24.00
2018-08-23T20:02:18.081Z,24.20
2018-08-23T20:04:22.207Z,23.90
2018-08-23T20:06:26.150Z,23.50
2018-08-23T20:08:30.272Z,23.00
2018-08-23T20:10:34.628Z,22.60
2018-08-23T20:12:38.803Z,22.40
2018-08-23T20:14:42.777Z,21.40
2018-08-23T20:16:46.680Z,22.00
2018-08-23T20:18:50.827Z,21.80
2018-08-23T20:20:54.878Z,21.60
2018-08-23T20:22:58.854Z,21.40
2018-08-23T20:25:02.838Z,21.20
2018-08-23T20:27:06.915Z,21.40
2018-08-23T20:29:10.940Z,22.20
2018-08-23T20:31:15.065Z,23.10
2018-08-23T20:33:19.050Z,23.70
2018-08-23T20:35:23.094Z,23.70
2018-08-23T20:37:27.133Z,23.70
2018-08-23T20:41:34.802Z,22.60
2018-08-23T20:43:39.017Z,22.20
2018-08-23T20:45:43.270Z,22.20
2018-08-23T20:47:47.239Z,21.10
2018-08-23T20:49:51.412Z,21.50
2018-08-23T20:51:55.599Z,21.40
2018-08-23T20:53:59.557Z,21.20
2018-08-23T20:56:03.627Z,21.10
2018-08-23T20:58:07.566Z,21.00
2018-08-23T21:00:11.535Z,21.20
2018-08-23T21:02:16.040Z,21.80
2018-08-23T21:04:20.241Z,22.20
2018-08-23T21:06:24.226Z,23.20
2018-08-23T21:08:28.170Z,23.70
2018-08-23T21:10:32.252Z,23.50
2018-08-23T21:12:36.270Z,23.20
2018-08-23T21:14:40.399Z,22.90
2018-08-23T21:16:44.512Z,22.60
2018-08-23T21:18:48.399Z,22.20
2018-08-23T21:20:52.495Z,21.70
2018-08-23T21:25:00.173Z,21.50
2018-08-23T21:27:04.343Z,21.50
2018-08-23T21:29:08.333Z,21.00
2018-08-23T21:33:16.197Z,21.20
2018-08-23T21:35:20.273Z,21.30
2018-08-23T21:37:24.353Z,22.20
2018-08-23T21:39:28.375Z,23.20
2018-08-23T21:41:32.445Z,23.80
2018-08-23T21:43:36.394Z,23.90
2018-08-23T21:45:40.352Z,23.10
2018-08-23T21:47:44.300Z,22.80
2018-08-23T21:49:48.622Z,22.70
2018-08-23T21:51:52.710Z,22.40
2018-08-23T21:53:56.595Z,22.20
2018-08-23T21:56:00.674Z,21.90
2018-08-23T21:58:05.261Z,21.70
2018-08-23T22:02:18.082Z,21.20
2018-08-23T22:04:22.188Z,21.30
2018-08-23T22:06:26.185Z,21.20
2018-08-23T22:08:30.351Z,21.50
2018-08-23T22:10:34.429Z,22.30
2018-08-23T22:12:38.399Z,23.90
2018-08-23T22:14:42.460Z,24.10
2018-08-23T22:16:46.725Z,24.10
2018-08-23T22:22:58.134Z,22.50
2018-08-23T22:25:02.191Z,22.10
2018-08-23T22:27:06.861Z,22.00
2018-08-23T22:31:14.479Z,21.70
2018-08-23T22:33:18.369Z,21.70
2018-08-23T22:35:22.311Z,21.40
2018-08-23T22:37:26.531Z,21.40
2018-08-23T22:39:30.972Z,21.30
2018-08-23T22:41:35.009Z,21.40
2018-08-23T22:43:39.023Z,22.20
2018-08-23T22:45:42.949Z,23.10
2018-08-23T22:47:46.957Z,23.90
2018-08-23T22:49:50.953Z,23.90
2018-08-23T22:51:54.924Z,23.50
2018-08-23T22:53:59.069Z,23.20
2018-08-23T22:56:03.160Z,22.90
2018-08-23T22:58:07.223Z,22.60
2018-08-23T23:00:11.395Z,22.30
2018-08-23T23:02:20.401Z,22.00
2018-08-23T23:04:28.447Z,21.80
2018-08-23T23:06:32.523Z,21.70
2018-08-23T23:08:36.570Z,21.50
2018-08-23T23:10:40.780Z,21.30
2018-08-23T23:12:44.818Z,21.20
2018-08-23T23:14:48.749Z,21.20
2018-08-23T23:16:54.405Z,21.90
2018-08-23T23:18:58.446Z,22.80
2018-08-23T23:21:02.447Z,23.60
2018-08-23T23:23:06.636Z,23.70
2018-08-23T23:25:10.866Z,23.60
2018-08-23T23:27:15.087Z,23.10
2018-08-23T23:29:19.120Z,22.80
2018-08-23T23:31:23.180Z,22.50
2018-08-23T23:33:27.302Z,22.20
2018-08-23T23:35:31.348Z,21.90
2018-08-23T23:37:35.302Z,21.50
2018-08-23T23:39:39.309Z,21.20
2018-08-23T23:41:43.339Z,20.90
2018-08-23T23:43:47.421Z,20.80
2018-08-23T23:45:51.459Z,20.50
2018-08-23T23:47:55.691Z,20.40
2018-08-23T23:49:59.942Z,21.00
2018-08-23T23:52:03.880Z,21.80
2018-08-23T23:54:09.461Z,22.50
2018-08-23T23:56:13.464Z,22.80
2018-08-23T23:58:17.415Z,22.60
